createdAt,value
2022-11-25T00:01:32.519Z,10.00
2022-11-25T00:04:00.643Z,9.90
2022-11-25T00:06:31.773Z,9.90
2022-11-25T00:09:06.392Z,9.90
2022-11-25T00:11:39.636Z,9.90
2022-11-25T00:14:11.199Z,9.90
2022-11-25T00:16:42.502Z,9.90
2022-11-25T00:19:12.802Z,9.90
2022-11-25T00:21:40.368Z,9.90
2022-11-25T00:24:08.422Z,9.90
2022-11-25T00:26:36.979Z,9.90
2022-11-25T00:29:07.673Z,9.90
2022-11-25T00:31:39.090Z,9.90
2022-11-25T00:34:07.546Z,9.90
2022-11-25T00:36:37.622Z,9.90
2022-11-25T00:39:12.049Z,9.90
2022-11-25T00:41:58.861Z,9.90
2022-11-25T00:44:41.996Z,9.80
2022-11-25T00:47:13.168Z,9.80
2022-11-25T00:49:48.629Z,9.80
2022-11-25T00:52:19.274Z,9.80
2022-11-25T00:54:49.929Z,9.80
2022-11-25T00:57:20.626Z,9.80
2022-11-25T00:59:48.657Z,9.80
2022-11-25T01:02:18.323Z,9.80
2022-11-25T01:04:46.953Z,9.80
2022-11-25T01:07:18.472Z,9.80
2022-11-25T01:09:46.278Z,9.80
2022-11-25T01:12:13.967Z,9.80
2022-11-25T01:14:41.976Z,9.80
2022-11-25T01:17:09.826Z,9.90
2022-11-25T01:19:40.702Z,9.90
2022-11-25T01:22:09.115Z,9.90
2022-11-25T01:24:39.620Z,9.80
2022-11-25T01:27:07.495Z,9.90
2022-11-25T01:29:35.139Z,9.80
2022-11-25T01:32:03.015Z,9.90
2022-11-25T01:34:32.519Z,9.90
2022-11-25T01:37:00.184Z,9.90
2022-11-25T01:39:32.496Z,9.90
2022-11-25T01:42:02.216Z,9.90
2022-11-25T01:44:32.391Z,9.90
2022-11-25T01:47:24.878Z,9.90
2022-11-25T01:50:05.303Z,9.90
2022-11-25T01:52:45.451Z,9.80
2022-11-25T01:55:24.069Z,9.80
2022-11-25T01:58:00.008Z,9.80
2022-11-25T02:00:27.620Z,9.80
2022-11-25T02:02:56.348Z,9.80
2022-11-25T02:05:58.952Z,9.90
2022-11-25T02:08:27.733Z,9.80
2022-11-25T02:10:56.203Z,9.80
2022-11-25T02:13:24.695Z,9.80
2022-11-25T02:15:52.573Z,9.90
2022-11-25T02:18:20.344Z,9.90
2022-11-25T02:20:48.036Z,9.90
2022-11-25T02:23:16.784Z,9.90
2022-11-25T02:25:47.130Z,10.00
2022-11-25T02:28:26.514Z,9.90
2022-11-25T02:30:54.260Z,10.00
2022-11-25T02:33:24.518Z,10.00
2022-11-25T02:35:57.623Z,10.00
2022-11-25T02:38:48.426Z,10.00
2022-11-25T02:41:25.519Z,10.30
2022-11-25T02:43:58.868Z,10.00
2022-11-25T02:46:28.434Z,10.00
2022-11-25T02:49:08.875Z,10.00
2022-11-25T02:51:39.525Z,10.00
2022-11-25T02:54:09.359Z,10.10
2022-11-25T02:56:38.623Z,10.10
2022-11-25T02:59:07.421Z,10.10
2022-11-25T03:01:36.566Z,10.10
2022-11-25T03:04:07.429Z,10.10
2022-11-25T03:06:35.167Z,10.10
2022-11-25T03:09:02.816Z,10.10
2022-11-25T03:11:50.403Z,10.10
2022-11-25T03:14:18.818Z,10.10
2022-11-25T03:16:47.082Z,10.10
2022-11-25T03:19:23.809Z,10.10
2022-11-25T03:22:57.411Z,10.10
2022-11-25T03:29:44.995Z,10.10
2022-11-25T03:32:13.765Z,10.00
2022-11-25T03:34:44.348Z,10.00
2022-11-25T03:37:12.273Z,10.00
2022-11-25T03:39:40.043Z,10.00
2022-11-25T03:42:08.509Z,10.00
2022-11-25T03:44:36.550Z,10.00
2022-11-25T03:47:04.631Z,10.00
2022-11-25T03:49:33.424Z,10.00
2022-11-25T03:52:01.949Z,10.00
2022-11-25T03:54:29.730Z,10.00
2022-11-25T03:57:18.081Z,10.00
2022-11-25T03:59:46.132Z,10.00
2022-11-25T04:02:15.644Z,10.00
2022-11-25T04:04:43.642Z,10.00
2022-11-25T04:07:12.897Z,10.10
2022-11-25T04:09:41.431Z,10.00
2022-11-25T04:12:29.318Z,10.00
2022-11-25T04:15:06.280Z,10.00
2022-11-25T04:17:35.087Z,10.00
2022-11-25T04:20:04.185Z,10.00
2022-11-25T04:22:31.823Z,10.00
2022-11-25T04:24:59.998Z,10.00
2022-11-25T04:27:28.197Z,9.90
2022-11-25T04:29:55.898Z,9.90
2022-11-25T04:32:23.620Z,9.90
2022-11-25T04:34:51.545Z,9.90
2022-11-25T04:37:20.292Z,9.90
2022-11-25T04:39:50.379Z,9.90
2022-11-25T04:42:34.378Z,9.90
2022-11-25T04:45:24.398Z,9.90
2022-11-25T04:47:54.500Z,9.80
2022-11-25T04:50:24.520Z,9.80
2022-11-25T04:53:03.231Z,9.80
2022-11-25T04:55:32.278Z,9.90
2022-11-25T04:58:02.095Z,9.80
2022-11-25T05:00:31.827Z,9.80
2022-11-25T05:02:59.679Z,9.70
2022-11-25T05:05:28.457Z,9.80
2022-11-25T05:07:57.298Z,9.80
2022-11-25T05:10:24.928Z,9.80
2022-11-25T05:12:52.634Z,9.70
2022-11-25T05:15:22.900Z,9.80
2022-11-25T05:17:50.617Z,9.80
2022-11-25T05:20:27.019Z,9.80
2022-11-25T05:22:54.868Z,9.70
2022-11-25T05:25:24.709Z,9.70
2022-11-25T05:28:11.095Z,9.70
2022-11-25T05:30:39.164Z,9.70
2022-11-25T05:33:07.144Z,9.70
2022-11-25T05:35:35.300Z,9.70
2022-11-25T05:38:04.421Z,9.70
2022-11-25T05:40:33.148Z,9.70
2022-11-25T05:43:05.485Z,9.80
2022-11-25T05:45:39.528Z,9.70
2022-11-25T05:48:09.507Z,9.80
2022-11-25T05:50:38.572Z,9.80
2022-11-25T05:53:20.194Z,9.80
2022-11-25T05:56:01.646Z,9.80
2022-11-25T05:58:50.628Z,9.80
2022-11-25T06:01:18.816Z,9.80
2022-11-25T06:03:47.659Z,9.80
2022-11-25T06:06:17.659Z,9.80
2022-11-25T06:08:45.780Z,9.80
2022-11-25T06:11:16.427Z,9.80
2022-11-25T06:13:45.280Z,9.80
2022-11-25T06:16:16.064Z,9.80
2022-11-25T06:18:46.333Z,9.80
2022-11-25T06:21:15.040Z,9.80
2022-11-25T06:23:45.616Z,9.80
2022-11-25T06:26:21.353Z,9.80
2022-11-25T06:28:52.589Z,9.80
2022-11-25T06:31:21.826Z,9.70
2022-11-25T06:34:09.590Z,9.70
2022-11-25T06:36:38.981Z,9.60
2022-11-25T06:39:06.953Z,9.60
2022-11-25T06:41:34.728Z,9.60
2022-11-25T06:44:02.406Z,9.60
2022-11-25T06:46:30.320Z,9.60
2022-11-25T06:49:00.398Z,9.60
2022-11-25T06:51:28.577Z,9.50
2022-11-25T06:53:56.266Z,9.50
2022-11-25T06:56:26.205Z,9.40
2022-11-25T06:58:55.122Z,9.40
2022-11-25T07:01:28.232Z,9.40
2022-11-25T07:04:03.366Z,9.40
2022-11-25T07:06:32.315Z,9.40
2022-11-25T07:09:00.518Z,9.30
2022-11-25T07:11:37.540Z,9.30
2022-11-25T07:14:07.316Z,9.30
2022-11-25T07:16:35.113Z,9.20
2022-11-25T07:19:03.675Z,9.20
2022-11-25T07:21:33.030Z,9.20
2022-11-25T07:24:02.844Z,9.20
2022-11-25T07:26:32.382Z,9.20
2022-11-25T07:29:01.813Z,9.20
2022-11-25T07:31:40.678Z,9.20
2022-11-25T07:34:20.690Z,9.10
2022-11-25T07:36:49.655Z,9.20
2022-11-25T07:39:20.663Z,9.10
2022-11-25T07:41:52.942Z,9.10
2022-11-25T07:44:20.898Z,9.20
2022-11-25T07:46:54.289Z,9.20
2022-11-25T07:49:25.457Z,9.20
2022-11-25T07:51:56.777Z,9.20
2022-11-25T07:54:24.528Z,9.20
2022-11-25T07:56:52.785Z,9.20
2022-11-25T07:59:22.445Z,9.20
2022-11-25T08:01:55.323Z,9.20
2022-11-25T08:04:23.272Z,9.20
2022-11-25T08:06:52.619Z,9.30
2022-11-25T08:09:22.836Z,9.30
2022-11-25T08:11:50.850Z,9.30
2022-11-25T08:14:19.339Z,9.30
2022-11-25T08:16:47.244Z,9.30
2022-11-25T08:19:17.353Z,9.30
2022-11-25T08:21:47.846Z,9.30
2022-11-25T08:24:24.111Z,9.40
2022-11-25T08:26:52.204Z,9.40
2022-11-25T08:29:19.913Z,9.40
2022-11-25T08:31:47.607Z,9.40
2022-11-25T08:34:22.243Z,9.40
2022-11-25T08:36:53.086Z,9.50
2022-11-25T08:39:50.640Z,9.50
2022-11-25T08:42:10.226Z,9.60
2022-11-25T08:44:38.468Z,9.60
2022-11-25T08:47:05.898Z,9.60
2022-11-25T08:49:39.104Z,9.70
2022-11-25T08:52:10.150Z,9.80
2022-11-25T08:54:37.965Z,9.80
2022-11-25T08:57:06.232Z,9.80
2022-11-25T08:59:36.673Z,9.80
2022-11-25T09:02:05.892Z,9.90
2022-11-25T09:04:33.958Z,9.90
2022-11-25T09:07:04.433Z,10.00
2022-11-25T09:09:32.048Z,10.00
2022-11-25T09:11:59.538Z,10.10
2022-11-25T09:14:27.268Z,10.10
2022-11-25T09:16:57.218Z,10.20
2022-11-25T09:19:24.800Z,10.30
2022-11-25T09:21:52.235Z,10.30
2022-11-25T09:24:20.270Z,10.30
2022-11-25T09:26:49.324Z,10.40
2022-11-25T09:29:16.976Z,10.40
2022-11-25T09:31:44.811Z,10.50
2022-11-25T09:34:13.137Z,10.60
2022-11-25T09:36:41.001Z,10.60
2022-11-25T09:39:08.833Z,10.70
2022-11-25T09:42:42.599Z,10.70
2022-11-25T09:45:40.769Z,10.80
2022-11-25T09:48:24.133Z,10.80
2022-11-25T09:51:16.504Z,10.90
2022-11-25T09:53:47.482Z,11.00
2022-11-25T09:56:41.415Z,11.00
2022-11-25T09:59:18.560Z,11.10
2022-11-25T10:02:02.427Z,11.20
2022-11-25T10:04:37.773Z,11.30
2022-11-25T10:07:18.263Z,11.30
2022-11-25T10:09:45.767Z,11.40
2022-11-25T10:12:30.803Z,11.40
2022-11-25T10:15:06.243Z,11.50
2022-11-25T10:17:40.039Z,11.60
2022-11-25T10:20:23.746Z,11.70
2022-11-25T10:23:16.424Z,11.70
2022-11-25T10:25:51.528Z,11.80
2022-11-25T10:28:20.860Z,11.90
2022-11-25T10:31:01.943Z,11.90
2022-11-25T10:33:48.959Z,12.00
2022-11-25T10:36:27.372Z,12.10
2022-11-25T10:39:11.180Z,12.10
2022-11-25T10:41:48.527Z,12.20
2022-11-25T10:44:25.042Z,12.30
2022-11-25T10:47:17.589Z,12.40
2022-11-25T10:50:24.970Z,12.50
2022-11-25T10:52:58.653Z,12.60
2022-11-25T10:55:30.541Z,12.70
2022-11-25T10:57:59.342Z,12.70
2022-11-25T11:00:37.440Z,12.90
2022-11-25T11:03:34.781Z,13.00
2022-11-25T11:06:02.767Z,13.10
2022-11-25T11:08:40.882Z,13.10
2022-11-25T11:11:15.040Z,13.30
2022-11-25T11:13:42.857Z,13.30
2022-11-25T11:16:36.785Z,13.40
2022-11-25T11:19:05.116Z,13.60
2022-11-25T11:21:37.939Z,13.70
2022-11-25T11:24:32.158Z,13.80
2022-11-25T11:27:16.429Z,14.00
2022-11-25T11:29:44.023Z,14.10
2022-11-25T11:32:24.168Z,14.40
2022-11-25T11:35:14.316Z,14.60
2022-11-25T11:37:46.057Z,14.70
2022-11-25T11:40:31.784Z,14.90
2022-11-25T11:43:12.653Z,15.10
2022-11-25T11:46:01.459Z,15.30
2022-11-25T11:48:49.988Z,15.50
2022-11-25T11:51:47.309Z,15.60
2022-11-25T11:54:35.381Z,15.80
2022-11-25T11:57:33.976Z,16.00
2022-11-25T12:00:17.039Z,16.20
2022-11-25T12:03:03.337Z,16.30
2022-11-25T12:05:35.238Z,16.50
2022-11-25T12:08:18.465Z,16.50
2022-11-25T12:10:54.693Z,16.60
2022-11-25T12:13:28.362Z,16.70
2022-11-25T12:16:17.549Z,16.90
2022-11-25T12:18:59.387Z,17.00
2022-11-25T12:21:55.131Z,17.20
2022-11-25T12:24:55.827Z,17.30
2022-11-25T12:28:00.811Z,17.50
2022-11-25T12:30:55.049Z,17.60
2022-11-25T12:33:29.930Z,17.80
2022-11-25T12:36:11.957Z,17.80
2022-11-25T12:39:04.152Z,18.00
2022-11-25T12:41:51.221Z,18.10
2022-11-25T12:44:29.116Z,18.20
2022-11-25T12:46:58.165Z,18.30
2022-11-25T12:49:29.718Z,18.40
2022-11-25T12:52:05.986Z,18.60
2022-11-25T12:54:54.137Z,18.80
2022-11-25T12:57:21.568Z,18.90
2022-11-25T13:00:06.022Z,19.00
2022-11-25T13:03:02.708Z,19.10
2022-11-25T13:05:42.626Z,19.20
2022-11-25T13:08:35.465Z,19.30
2022-11-25T13:11:12.916Z,19.30
2022-11-25T13:13:46.802Z,19.30
2022-11-25T13:16:15.648Z,19.40
2022-11-25T13:18:44.993Z,19.40
2022-11-25T13:21:17.145Z,19.40
2022-11-25T13:23:58.837Z,19.50
2022-11-25T13:26:34.151Z,19.50
2022-11-25T13:29:14.846Z,19.50
2022-11-25T13:31:59.205Z,19.60
2022-11-25T13:34:35.294Z,19.70
2022-11-25T13:37:33.517Z,19.70
2022-11-25T13:40:26.407Z,19.80
2022-11-25T13:42:55.581Z,19.90
2022-11-25T13:45:38.193Z,20.00
2022-11-25T13:48:28.054Z,20.10
2022-11-25T13:51:20.856Z,20.20
2022-11-25T13:54:00.199Z,20.20
2022-11-25T13:56:32.961Z,20.20
2022-11-25T13:59:12.302Z,20.20
2022-11-25T14:01:45.920Z,20.10
2022-11-25T14:04:14.711Z,20.00
2022-11-25T14:06:51.196Z,19.90
2022-11-25T14:10:05.280Z,19.80
2022-11-25T14:12:48.952Z,19.70
2022-11-25T14:15:46.776Z,19.50
2022-11-25T14:18:42.944Z,19.30
2022-11-25T14:21:44.765Z,19.20
2022-11-25T14:24:35.295Z,18.90
2022-11-25T14:27:04.598Z,18.70
2022-11-25T14:29:40.412Z,18.50
2022-11-25T14:32:14.835Z,18.30
2022-11-25T14:34:57.377Z,18.10
2022-11-25T14:37:43.678Z,17.90
2022-11-25T14:40:34.374Z,17.70
2022-11-25T14:43:15.571Z,17.50
2022-11-25T14:45:43.171Z,17.30
2022-11-25T14:48:18.978Z,17.10
2022-11-25T14:51:03.905Z,17.00
2022-11-25T14:53:39.868Z,16.80
2022-11-25T14:56:12.089Z,16.70
2022-11-25T14:58:47.769Z,16.50
2022-11-25T15:01:24.570Z,16.30
2022-11-25T15:04:02.839Z,16.20
2022-11-25T15:06:39.621Z,16.00
2022-11-25T15:09:22.092Z,15.90
2022-11-25T15:12:02.264Z,15.80
2022-11-25T15:14:43.285Z,15.70
2022-11-25T15:17:29.628Z,15.50
2022-11-25T15:20:04.646Z,15.40
2022-11-25T15:22:32.292Z,15.30
2022-11-25T15:25:09.298Z,15.20
2022-11-25T15:27:44.835Z,15.10
2022-11-25T15:30:20.446Z,15.00
2022-11-25T15:32:48.852Z,14.90
2022-11-25T15:35:22.735Z,14.80
2022-11-25T15:37:50.695Z,14.80
2022-11-25T15:40:43.119Z,14.70
2022-11-25T15:43:29.722Z,14.60
2022-11-25T15:46:04.772Z,14.40
2022-11-25T15:48:33.887Z,14.40
2022-11-25T15:51:23.883Z,14.30
2022-11-25T15:54:29.145Z,14.30
2022-11-25T15:57:05.296Z,14.10
2022-11-25T15:59:55.920Z,14.00
2022-11-25T16:02:41.859Z,14.00
2022-11-25T16:05:12.037Z,13.90
2022-11-25T16:08:01.142Z,13.70
2022-11-25T16:10:31.601Z,13.70
2022-11-25T16:13:22.957Z,13.60
2022-11-25T16:16:10.930Z,13.50
2022-11-25T16:18:50.588Z,13.40
2022-11-25T16:21:24.498Z,13.40
2022-11-25T16:23:56.657Z,13.30
2022-11-25T16:26:32.539Z,13.20
2022-11-25T16:29:01.924Z,13.20
2022-11-25T16:31:29.421Z,13.10
2022-11-25T16:34:12.591Z,13.00
2022-11-25T16:36:40.022Z,13.00
2022-11-25T16:39:08.077Z,12.90
2022-11-25T16:41:36.789Z,12.80
2022-11-25T16:44:22.614Z,12.80
2022-11-25T16:46:51.128Z,12.70
2022-11-25T16:49:20.103Z,12.60
2022-11-25T16:51:49.824Z,12.60
2022-11-25T16:54:22.636Z,12.50
2022-11-25T16:56:53.158Z,12.40
2022-11-25T16:59:37.050Z,12.30
2022-11-25T17:02:14.944Z,12.30
2022-11-25T17:04:42.604Z,12.20
2022-11-25T17:07:32.080Z,12.10
2022-11-25T17:10:03.374Z,12.10
2022-11-25T17:12:33.705Z,12.00
2022-11-25T17:15:04.153Z,11.90
2022-11-25T17:17:32.368Z,11.90
2022-11-25T17:20:00.153Z,11.80
2022-11-25T17:22:33.413Z,11.80
2022-11-25T17:25:04.609Z,11.70
2022-11-25T17:27:33.502Z,12.60
2022-11-25T17:30:04.440Z,11.60
2022-11-25T17:32:33.103Z,11.60
2022-11-25T17:35:00.689Z,11.50
2022-11-25T17:37:31.017Z,11.40
2022-11-25T17:39:58.717Z,11.40
2022-11-25T17:42:33.001Z,11.30
2022-11-25T17:45:00.959Z,11.30
2022-11-25T17:47:28.714Z,11.30
2022-11-25T17:49:57.832Z,11.20
2022-11-25T17:52:25.428Z,11.20
2022-11-25T17:54:52.985Z,11.20
2022-11-25T17:57:22.138Z,11.20
2022-11-25T17:59:50.071Z,11.20
2022-11-25T18:02:19.884Z,11.10
2022-11-25T18:04:48.496Z,11.10
2022-11-25T18:07:16.385Z,11.10
2022-11-25T18:09:45.978Z,11.00
2022-11-25T18:12:18.389Z,11.00
2022-11-25T18:14:46.446Z,11.00
2022-11-25T18:17:17.310Z,11.00
2022-11-25T18:19:48.575Z,11.00
2022-11-25T18:22:19.826Z,10.90
2022-11-25T18:24:47.816Z,11.00
2022-11-25T18:27:25.301Z,10.90
2022-11-25T18:29:54.097Z,11.00
2022-11-25T18:32:23.436Z,11.00
2022-11-25T18:34:51.902Z,11.00
2022-11-25T18:37:19.627Z,11.00
2022-11-25T18:39:47.055Z,11.00
2022-11-25T18:42:26.651Z,11.00
2022-11-25T18:44:55.846Z,11.00
2022-11-25T18:47:23.639Z,11.00
2022-11-25T18:49:55.987Z,11.00
2022-11-25T18:52:25.167Z,11.00
2022-11-25T18:54:52.957Z,10.90
2022-11-25T18:57:20.817Z,10.90
2022-11-25T19:00:10.337Z,11.00
2022-11-25T19:02:36.600Z,10.90
2022-11-25T19:05:16.557Z,10.90
2022-11-25T19:07:48.634Z,10.90
2022-11-25T19:10:17.259Z,10.90
2022-11-25T19:12:48.444Z,10.90
2022-11-25T19:15:19.309Z,10.90
2022-11-25T19:17:50.688Z,10.90
2022-11-25T19:20:20.488Z,10.90
2022-11-25T19:22:48.131Z,10.90
2022-11-25T19:25:15.951Z,10.90
2022-11-25T19:28:02.348Z,10.90
2022-11-25T19:30:32.161Z,10.90
2022-11-25T19:33:02.399Z,10.80
2022-11-25T19:35:36.232Z,10.90
2022-11-25T19:38:16.535Z,10.90
2022-11-25T19:40:44.235Z,10.80
2022-11-25T19:43:11.880Z,10.90
2022-11-25T19:45:39.723Z,10.90
2022-11-25T19:48:12.063Z,10.90
2022-11-25T19:50:40.483Z,10.90
2022-11-25T19:53:19.448Z,11.00
2022-11-25T19:55:47.819Z,11.00
2022-11-25T19:58:15.736Z,11.00
2022-11-25T20:00:45.629Z,11.00
2022-11-25T20:03:22.422Z,11.00
2022-11-25T20:05:52.212Z,11.10
2022-11-25T20:08:26.512Z,11.10
2022-11-25T20:10:58.178Z,11.20
2022-11-25T20:13:26.354Z,11.20
2022-11-25T20:15:56.151Z,11.20
2022-11-25T20:18:25.537Z,11.20
2022-11-25T20:21:01.313Z,11.20
2022-11-25T20:23:37.443Z,11.20
2022-11-25T20:26:10.172Z,11.20
2022-11-25T20:28:37.577Z,11.20
2022-11-25T20:31:07.862Z,11.20
2022-11-25T20:33:35.415Z,11.30
2022-11-25T20:36:15.617Z,11.30
2022-11-25T20:38:48.833Z,11.30
2022-11-25T20:41:24.344Z,11.30
2022-11-25T20:43:58.918Z,11.30
2022-11-25T20:46:31.339Z,11.20
2022-11-25T20:49:03.347Z,11.20
2022-11-25T20:51:31.183Z,11.30
2022-11-25T20:54:03.292Z,11.30
2022-11-25T20:56:30.774Z,11.30
2022-11-25T20:58:58.503Z,11.30
2022-11-25T21:01:28.551Z,11.30
2022-11-25T21:03:57.080Z,11.30
2022-11-25T21:06:29.867Z,11.30
2022-11-25T21:08:59.688Z,11.30
2022-11-25T21:11:28.161Z,11.30
2022-11-25T21:13:55.761Z,11.30
2022-11-25T21:16:23.495Z,11.30
2022-11-25T21:18:51.196Z,11.30
2022-11-25T21:21:32.903Z,11.30
2022-11-25T21:24:08.037Z,11.30
2022-11-25T21:26:35.507Z,11.30
2022-11-25T21:29:03.128Z,11.20
2022-11-25T21:31:30.929Z,11.20
2022-11-25T21:34:01.071Z,11.20
2022-11-25T21:36:30.749Z,11.20
2022-11-25T21:39:05.305Z,11.20
2022-11-25T21:41:33.741Z,11.20
2022-11-25T21:44:04.461Z,11.10
2022-11-25T21:46:32.041Z,11.10
2022-11-25T21:49:00.022Z,11.10
2022-11-25T21:51:27.475Z,11.10
2022-11-25T21:53:54.978Z,11.10
2022-11-25T21:56:34.509Z,11.10
2022-11-25T21:59:04.969Z,11.00
2022-11-25T22:01:32.967Z,11.00
2022-11-25T22:04:00.574Z,11.00
2022-11-25T22:06:30.080Z,11.00
2022-11-25T22:09:00.596Z,10.90
2022-11-25T22:11:43.125Z,10.90
2022-11-25T22:14:34.774Z,10.90
2022-11-25T22:17:06.262Z,10.80
2022-11-25T22:19:34.431Z,10.80
2022-11-25T22:22:02.321Z,10.80
2022-11-25T22:24:33.316Z,10.70
2022-11-25T22:27:00.743Z,10.70
2022-11-25T22:29:34.471Z,10.70
2022-11-25T22:32:07.048Z,10.70
2022-11-25T22:34:37.598Z,10.70
2022-11-25T22:37:21.201Z,10.60
2022-11-25T22:39:49.031Z,10.60
2022-11-25T22:42:24.095Z,10.60
2022-11-25T22:44:53.029Z,10.60
2022-11-25T22:47:35.928Z,10.50
2022-11-25T22:50:07.461Z,10.50
2022-11-25T22:52:36.209Z,10.50
2022-11-25T22:55:22.529Z,10.50
2022-11-25T22:57:52.267Z,10.50
2022-11-25T23:00:23.605Z,10.40
2022-11-25T23:02:52.823Z,10.40
2022-11-25T23:05:33.847Z,10.40
2022-11-25T23:08:08.687Z,10.40
2022-11-25T23:10:36.135Z,10.30
2022-11-25T23:13:03.629Z,10.30
2022-11-25T23:15:31.400Z,10.40
2022-11-25T23:18:01.423Z,10.30
2022-11-25T23:20:32.667Z,10.20
2022-11-25T23:23:22.638Z,10.30
2022-11-25T23:25:50.726Z,10.20
2022-11-25T23:28:18.450Z,10.20
2022-11-25T23:30:52.487Z,10.20
2022-11-25T23:33:43.571Z,10.20
2022-11-25T23:36:17.928Z,10.20
2022-11-25T23:38:49.967Z,10.10
2022-11-25T23:41:24.429Z,10.10
2022-11-25T23:43:53.226Z,10.10
2022-11-25T23:46:28.561Z,10.10
2022-11-25T23:48:59.545Z,10.10
2022-11-25T23:51:27.381Z,10.10
2022-11-25T23:53:56.952Z,10.00
2022-11-25T23:56:27.322Z,10.00
2022-11-25T23:58:54.936Z,10.00
